MET'MAP v2.0
soon released !

Expected late october,
this new version will be
more efficient, smarter,
and hosted on a brand new
server x3 powerfull...
...and still free !


Not compatible ?
Try the mobile version !

LOG IN : | Subscribe | Disclaimer | Who is Orbifly ? |
ICAO code :

TAF - ETHS Fassberg Airport - 05 Dec 2019 18:22 UTC - Data Source NOAA   


- Airport Elevation : 245 ft
- No reported NOTAMs.


ETHS - Fassberg Airport

Latest METAR recorded : 2015/08/11 07:49 ETHS 110749Z 01005KT 9999 BKN010 BKN180 20/17 Q1017 GRN BLU TEMPO GRN
TAF TAF ETHS
Valid from the 05 at 15:00 until the 06 at 00:00 UTC


051419Z 0515/0524 25008KT 9999 NSW FEW150
BECMG 0515/0516 24006KT 3000 BR BKN003
TEMPO 0517/0524 23005KT 0800 FZFG VV001

Source NOAA


MET'MAP, your aeronautical weather chart ! - Copyright ORBIFLY December 2007

Programming & Development : Alexandra Zaïnal
Co-Developer : Marc-Olivier Méhu
Technical & hardware support : Manuel Goepfert
Concept & Financing : Baudouin d'Aumeries